sensor_id;sensor_type;location;lat;lon;timestamp;pressure;altitude;pressure_sealevel;temperature
67829;BMP280;54626;45.436;10.942;2023-03-14T00:01:17;100007.47;;;12.11
67829;BMP280;54626;45.436;10.942;2023-03-14T00:03:44;100003.41;;;12.12
67829;BMP280;54626;45.436;10.942;2023-03-14T00:06:12;100017.03;;;12.17
67829;BMP280;54626;45.436;10.942;2023-03-14T00:08:40;100011.72;;;12.12
67829;BMP280;54626;45.436;10.942;2023-03-14T00:11:12;100006.56;;;12.08
67829;BMP280;54626;45.436;10.942;2023-03-14T00:13:39;99993.63;;;12.03
67829;BMP280;54626;45.436;10.942;2023-03-14T00:16:11;100001.88;;;12.25
67829;BMP280;54626;45.436;10.942;2023-03-14T00:18:39;100008.22;;;12.50
67829;BMP280;54626;45.436;10.942;2023-03-14T00:21:07;100010.81;;;12.56
67829;BMP280;54626;45.436;10.942;2023-03-14T00:23:36;99999.25;;;12.67
67829;BMP280;54626;45.436;10.942;2023-03-14T00:26:14;99978.88;;;12.72
67829;BMP280;54626;45.436;10.942;2023-03-14T00:28:41;99970.19;;;12.75
67829;BMP280;54626;45.436;10.942;2023-03-14T00:31:10;99987.97;;;12.72
67829;BMP280;54626;45.436;10.942;2023-03-14T00:33:37;99974.78;;;12.80
67829;BMP280;54626;45.436;10.942;2023-03-14T00:36:06;99954.63;;;12.80
67829;BMP280;54626;45.436;10.942;2023-03-14T00:38:35;99954.06;;;12.81
67829;BMP280;54626;45.436;10.942;2023-03-14T00:41:07;99925.03;;;12.82
67829;BMP280;54626;45.436;10.942;2023-03-14T00:43:34;99918.56;;;12.80
67829;BMP280;54626;45.436;10.942;2023-03-14T00:46:01;99916.34;;;12.78
67829;BMP280;54626;45.436;10.942;2023-03-14T00:48:27;99895.06;;;12.81
67829;BMP280;54626;45.436;10.942;2023-03-14T00:50:54;99899.06;;;12.87
67829;BMP280;54626;45.436;10.942;2023-03-14T00:53:20;99891.81;;;12.92
67829;BMP280;54626;45.436;10.942;2023-03-14T00:55:48;99874.59;;;12.93
67829;BMP280;54626;45.436;10.942;2023-03-14T00:58:15;99876.06;;;12.94
67829;BMP280;54626;45.436;10.942;2023-03-14T01:00:42;99880.47;;;12.97
67829;BMP280;54626;45.436;10.942;2023-03-14T01:03:09;99869.63;;;12.92
67829;BMP280;54626;45.436;10.942;2023-03-14T01:05:36;99862.34;;;12.96
67829;BMP280;54626;45.436;10.942;2023-03-14T01:08:03;99865.88;;;12.96
67829;BMP280;54626;45.436;10.942;2023-03-14T01:10:30;99858.28;;;12.97
67829;BMP280;54626;45.436;10.942;2023-03-14T01:12:56;99872.31;;;12.99
67829;BMP280;54626;45.436;10.942;2023-03-14T01:15:23;99879.34;;;13.00
67829;BMP280;54626;45.436;10.942;2023-03-14T01:17:50;99862.69;;;13.00
67829;BMP280;54626;45.436;10.942;2023-03-14T01:20:17;99854.94;;;12.98
67829;BMP280;54626;45.436;10.942;2023-03-14T01:22:44;99856.66;;;12.94
67829;BMP280;54626;45.436;10.942;2023-03-14T01:25:13;99848.16;;;12.92
67829;BMP280;54626;45.436;10.942;2023-03-14T01:27:40;99833.78;;;12.86
67829;BMP280;54626;45.436;10.942;2023-03-14T01:30:07;99816.63;;;12.80
67829;BMP280;54626;45.436;10.942;2023-03-14T01:32:34;99826.25;;;12.79
67829;BMP280;54626;45.436;10.942;2023-03-14T01:35:01;99825.53;;;12.79
67829;BMP280;54626;45.436;10.942;2023-03-14T01:37:27;99804.06;;;12.79
67829;BMP280;54626;45.436;10.942;2023-03-14T01:39:53;99802.81;;;12.73
67829;BMP280;54626;45.436;10.942;2023-03-14T01:42:21;99795.56;;;12.77
67829;BMP280;54626;45.436;10.942;2023-03-14T01:47:17;99794.25;;;12.78
67829;BMP280;54626;45.436;10.942;2023-03-14T01:49:46;99782.63;;;12.80
67829;BMP280;54626;45.436;10.942;2023-03-14T01:52:14;99774.28;;;12.80
67829;BMP280;54626;45.436;10.942;2023-03-14T01:54:44;99768.97;;;12.74
67829;BMP280;54626;45.436;10.942;2023-03-14T01:57:11;99755.59;;;12.80
67829;BMP280;54626;45.436;10.942;2023-03-14T01:59:44;99753.81;;;12.75
67829;BMP280;54626;45.436;10.942;2023-03-14T02:02:12;99741.38;;;12.76
67829;BMP280;54626;45.436;10.942;2023-03-14T02:04:39;99724.41;;;12.72
67829;BMP280;54626;45.436;10.942;2023-03-14T02:07:16;99740.13;;;12.70
67829;BMP280;54626;45.436;10.942;2023-03-14T02:09:44;99733.06;;;12.76
67829;BMP280;54626;45.436;10.942;2023-03-14T02:12:14;99708.25;;;12.78
67829;BMP280;54626;45.436;10.942;2023-03-14T02:14:41;99704.19;;;12.79
67829;BMP280;54626;45.436;10.942;2023-03-14T02:17:16;99714.88;;;12.83
67829;BMP280;54626;45.436;10.942;2023-03-14T02:19:57;99714.94;;;12.92
67829;BMP280;54626;45.436;10.942;2023-03-14T02:22:27;99706.94;;;12.96
67829;BMP280;54626;45.436;10.942;2023-03-14T02:27:26;99688.91;;;13.04
67829;BMP280;54626;45.436;10.942;2023-03-14T02:29:59;99693.63;;;13.11
67829;BMP280;54626;45.436;10.942;2023-03-14T02:32:30;99693.19;;;13.15
67829;BMP280;54626;45.436;10.942;2023-03-14T02:34:59;99691.66;;;13.21
67829;BMP280;54626;45.436;10.942;2023-03-14T02:37:33;99680.59;;;13.31
67829;BMP280;54626;45.436;10.942;2023-03-14T02:40:01;99669.97;;;13.37
67829;BMP280;54626;45.436;10.942;2023-03-14T02:42:28;99676.72;;;13.43
67829;BMP280;54626;45.436;10.942;2023-03-14T02:47:37;99684.22;;;13.50
67829;BMP280;54626;45.436;10.942;2023-03-14T02:50:17;99677.44;;;13.44
67829;BMP280;54626;45.436;10.942;2023-03-14T02:52:44;99667.22;;;13.46
67829;BMP280;54626;45.436;10.942;2023-03-14T02:55:11;99675.97;;;13.43
67829;BMP280;54626;45.436;10.942;2023-03-14T02:57:45;99672.03;;;13.46
67829;BMP280;54626;45.436;10.942;2023-03-14T03:00:11;99645.72;;;13.47
67829;BMP280;54626;45.436;10.942;2023-03-14T03:02:38;99647.38;;;13.50
67829;BMP280;54626;45.436;10.942;2023-03-14T03:05:05;99679.81;;;13.47
67829;BMP280;54626;45.436;10.942;2023-03-14T03:07:32;99687.72;;;13.51
67829;BMP280;54626;45.436;10.942;2023-03-14T03:09:59;99642.56;;;13.50
67829;BMP280;54626;45.436;10.942;2023-03-14T03:12:26;99634.78;;;13.49
67829;BMP280;54626;45.436;10.942;2023-03-14T03:14:52;99625.91;;;13.50
67829;BMP280;54626;45.436;10.942;2023-03-14T03:17:19;99638.31;;;13.49
67829;BMP280;54626;45.436;10.942;2023-03-14T03:19:45;99649.59;;;13.51
67829;BMP280;54626;45.436;10.942;2023-03-14T03:22:11;99642.28;;;13.56
67829;BMP280;54626;45.436;10.942;2023-03-14T03:24:38;99628.50;;;13.48
67829;BMP280;54626;45.436;10.942;2023-03-14T03:27:04;99622.97;;;13.58
67829;BMP280;54626;45.436;10.942;2023-03-14T03:29:31;99601.34;;;13.56
67829;BMP280;54626;45.436;10.942;2023-03-14T03:31:57;99569.16;;;13.53
67829;BMP280;54626;45.436;10.942;2023-03-14T03:34:24;99538.78;;;13.55
67829;BMP280;54626;45.436;10.942;2023-03-14T03:36:50;99546.81;;;13.51
67829;BMP280;54626;45.436;10.942;2023-03-14T03:39:17;99537.41;;;13.47
67829;BMP280;54626;45.436;10.942;2023-03-14T03:41:43;99540.19;;;13.47
67829;BMP280;54626;45.436;10.942;2023-03-14T03:44:09;99546.22;;;13.43
67829;BMP280;54626;45.436;10.942;2023-03-14T03:46:36;99544.28;;;13.46
67829;BMP280;54626;45.436;10.942;2023-03-14T03:49:02;99537.56;;;13.49
67829;BMP280;54626;45.436;10.942;2023-03-14T03:51:29;99532.16;;;13.41
67829;BMP280;54626;45.436;10.942;2023-03-14T03:53:58;99537.41;;;13.47
67829;BMP280;54626;45.436;10.942;2023-03-14T03:56:24;99539.78;;;13.50
67829;BMP280;54626;45.436;10.942;2023-03-14T03:58:50;99536.28;;;13.50
67829;BMP280;54626;45.436;10.942;2023-03-14T04:01:17;99526.19;;;13.54
67829;BMP280;54626;45.436;10.942;2023-03-14T04:03:43;99532.94;;;13.61
67829;BMP280;54626;45.436;10.942;2023-03-14T04:06:12;99503.84;;;13.62
67829;BMP280;54626;45.436;10.942;2023-03-14T04:08:40;99514.34;;;13.54
67829;BMP280;54626;45.436;10.942;2023-03-14T04:11:09;99529.44;;;13.60
67829;BMP280;54626;45.436;10.942;2023-03-14T04:13:36;99508.50;;;13.59
67829;BMP280;54626;45.436;10.942;2023-03-14T04:16:02;99494.19;;;13.63
67829;BMP280;54626;45.436;10.942;2023-03-14T04:18:29;99498.56;;;13.65
67829;BMP280;54626;45.436;10.942;2023-03-14T04:20:57;99494.03;;;13.61
67829;BMP280;54626;45.436;10.942;2023-03-14T04:23:24;99505.75;;;13.59
67829;BMP280;54626;45.436;10.942;2023-03-14T04:25:52;99485.69;;;13.61
67829;BMP280;54626;45.436;10.942;2023-03-14T04:28:19;99461.72;;;13.56
67829;BMP280;54626;45.436;10.942;2023-03-14T04:30:45;99464.34;;;13.54
67829;BMP280;54626;45.436;10.942;2023-03-14T04:33:12;99466.41;;;13.53
67829;BMP280;54626;45.436;10.942;2023-03-14T04:35:41;99486.88;;;13.48
67829;BMP280;54626;45.436;10.942;2023-03-14T04:38:08;99466.97;;;13.52
67829;BMP280;54626;45.436;10.942;2023-03-14T04:40:39;99478.41;;;13.56
67829;BMP280;54626;45.436;10.942;2023-03-14T04:43:08;99468.75;;;13.57
67829;BMP280;54626;45.436;10.942;2023-03-14T04:45:36;99450.47;;;13.54
67829;BMP280;54626;45.436;10.942;2023-03-14T04:48:03;99437.88;;;13.53
67829;BMP280;54626;45.436;10.942;2023-03-14T04:50:33;99431.00;;;13.54
67829;BMP280;54626;45.436;10.942;2023-03-14T04:53:00;99439.34;;;13.54
67829;BMP280;54626;45.436;10.942;2023-03-14T04:55:29;99436.59;;;13.44
67829;BMP280;54626;45.436;10.942;2023-03-14T04:57:56;99433.34;;;13.48
67829;BMP280;54626;45.436;10.942;2023-03-14T05:00:23;99417.44;;;13.48
67829;BMP280;54626;45.436;10.942;2023-03-14T05:02:52;99408.34;;;13.48
67829;BMP280;54626;45.436;10.942;2023-03-14T05:05:19;99401.50;;;13.49
67829;BMP280;54626;45.436;10.942;2023-03-14T05:07:49;99398.44;;;13.54
67829;BMP280;54626;45.436;10.942;2023-03-14T05:10:15;99402.09;;;13.57
67829;BMP280;54626;45.436;10.942;2023-03-14T05:12:42;99395.06;;;13.56
67829;BMP280;54626;45.436;10.942;2023-03-14T05:15:12;99388.50;;;13.51
67829;BMP280;54626;45.436;10.942;2023-03-14T05:17:40;99367.72;;;13.52
67829;BMP280;54626;45.436;10.942;2023-03-14T05:20:13;99365.25;;;13.47
67829;BMP280;54626;45.436;10.942;2023-03-14T05:22:39;99380.88;;;13.52
67829;BMP280;54626;45.436;10.942;2023-03-14T05:25:07;99375.34;;;13.42
67829;BMP280;54626;45.436;10.942;2023-03-14T05:27:34;99353.72;;;13.50
67829;BMP280;54626;45.436;10.942;2023-03-14T05:30:01;99362.19;;;13.52
67829;BMP280;54626;45.436;10.942;2023-03-14T05:32:28;99357.34;;;13.53
67829;BMP280;54626;45.436;10.942;2023-03-14T05:34:55;99340.41;;;13.49
67829;BMP280;54626;45.436;10.942;2023-03-14T05:37:26;99341.88;;;13.50
67829;BMP280;54626;45.436;10.942;2023-03-14T05:39:53;99342.13;;;13.54
67829;BMP280;54626;45.436;10.942;2023-03-14T05:42:20;99346.97;;;13.53
67829;BMP280;54626;45.436;10.942;2023-03-14T05:44:46;99383.97;;;13.56
67829;BMP280;54626;45.436;10.942;2023-03-14T05:47:13;99417.59;;;13.50
67829;BMP280;54626;45.436;10.942;2023-03-14T05:49:40;99450.19;;;13.50
67829;BMP280;54626;45.436;10.942;2023-03-14T05:52:06;99441.84;;;13.50
67829;BMP280;54626;45.436;10.942;2023-03-14T05:54:33;99463.47;;;13.42
67829;BMP280;54626;45.436;10.942;2023-03-14T05:56:59;99473.81;;;13.22
67829;BMP280;54626;45.436;10.942;2023-03-14T05:59:26;99490.84;;;13.09
67829;BMP280;54626;45.436;10.942;2023-03-14T06:01:53;99472.69;;;12.99
67829;BMP280;54626;45.436;10.942;2023-03-14T06:04:20;99487.41;;;12.92
67829;BMP280;54626;45.436;10.942;2023-03-14T06:06:46;99502.03;;;12.66
67829;BMP280;54626;45.436;10.942;2023-03-14T06:09:13;99502.66;;;12.48
67829;BMP280;54626;45.436;10.942;2023-03-14T06:11:40;99500.53;;;12.39
67829;BMP280;54626;45.436;10.942;2023-03-14T06:14:07;99485.97;;;12.38
67829;BMP280;54626;45.436;10.942;2023-03-14T06:16:33;99487.78;;;12.26
67829;BMP280;54626;45.436;10.942;2023-03-14T06:19:02;99473.94;;;12.10
67829;BMP280;54626;45.436;10.942;2023-03-14T06:21:32;99453.47;;;12.05
67829;BMP280;54626;45.436;10.942;2023-03-14T06:23:58;99453.91;;;12.02
67829;BMP280;54626;45.436;10.942;2023-03-14T06:29:11;99450.47;;;12.11
67829;BMP280;54626;45.436;10.942;2023-03-14T06:31:39;99443.63;;;12.12
67829;BMP280;54626;45.436;10.942;2023-03-14T06:34:06;99448.84;;;12.08
67829;BMP280;54626;45.436;10.942;2023-03-14T06:36:32;99449.34;;;12.14
67829;BMP280;54626;45.436;10.942;2023-03-14T06:38:58;99454.72;;;12.12
67829;BMP280;54626;45.436;10.942;2023-03-14T06:41:25;99463.03;;;12.12
67829;BMP280;54626;45.436;10.942;2023-03-14T06:43:52;99468.72;;;12.14
67829;BMP280;54626;45.436;10.942;2023-03-14T06:46:22;99471.81;;;12.18
67829;BMP280;54626;45.436;10.942;2023-03-14T06:48:48;99474.16;;;12.21
67829;BMP280;54626;45.436;10.942;2023-03-14T06:51:15;99469.38;;;12.21
67829;BMP280;54626;45.436;10.942;2023-03-14T06:53:41;99451.28;;;12.20
67829;BMP280;54626;45.436;10.942;2023-03-14T06:56:07;99443.28;;;12.24
67829;BMP280;54626;45.436;10.942;2023-03-14T06:58:34;99444.75;;;12.25
67829;BMP280;54626;45.436;10.942;2023-03-14T07:01:00;99425.75;;;12.22
67829;BMP280;54626;45.436;10.942;2023-03-14T07:03:27;99426.63;;;12.24
67829;BMP280;54626;45.436;10.942;2023-03-14T07:05:53;99431.25;;;12.13
67829;BMP280;54626;45.436;10.942;2023-03-14T07:08:20;99428.47;;;12.13
67829;BMP280;54626;45.436;10.942;2023-03-14T07:10:46;99416.56;;;12.19
67829;BMP280;54626;45.436;10.942;2023-03-14T07:13:13;99412.78;;;12.24
67829;BMP280;54626;45.436;10.942;2023-03-14T07:15:39;99417.75;;;12.26
67829;BMP280;54626;45.436;10.942;2023-03-14T07:18:06;99404.53;;;12.34
67829;BMP280;54626;45.436;10.942;2023-03-14T07:20:32;99400.19;;;12.40
67829;BMP280;54626;45.436;10.942;2023-03-14T07:22:59;99395.41;;;12.50
67829;BMP280;54626;45.436;10.942;2023-03-14T07:25:26;99393.63;;;12.45
67829;BMP280;54626;45.436;10.942;2023-03-14T07:27:52;99399.81;;;12.53
67829;BMP280;54626;45.436;10.942;2023-03-14T07:30:19;99396.88;;;12.51
67829;BMP280;54626;45.436;10.942;2023-03-14T07:32:45;99408.69;;;12.52
67829;BMP280;54626;45.436;10.942;2023-03-14T07:35:12;99399.97;;;12.55
67829;BMP280;54626;45.436;10.942;2023-03-14T07:37:38;99403.31;;;12.54
67829;BMP280;54626;45.436;10.942;2023-03-14T07:40:05;99402.00;;;12.55
67829;BMP280;54626;45.436;10.942;2023-03-14T07:42:33;99401.41;;;12.56
67829;BMP280;54626;45.436;10.942;2023-03-14T07:44:59;99412.38;;;12.64
67829;BMP280;54626;45.436;10.942;2023-03-14T07:47:26;99406.13;;;12.63
67829;BMP280;54626;45.436;10.942;2023-03-14T07:49:53;99411.66;;;12.63
67829;BMP280;54626;45.436;10.942;2023-03-14T07:52:20;99404.78;;;12.55
67829;BMP280;54626;45.436;10.942;2023-03-14T07:54:47;99404.59;;;12.53
67829;BMP280;54626;45.436;10.942;2023-03-14T07:57:14;99403.72;;;12.50
67829;BMP280;54626;45.436;10.942;2023-03-14T07:59:50;99405.06;;;12.49
67829;BMP280;54626;45.436;10.942;2023-03-14T08:02:16;99397.28;;;12.48
67829;BMP280;54626;45.436;10.942;2023-03-14T08:04:44;99396.56;;;12.47
67829;BMP280;54626;45.436;10.942;2023-03-14T08:07:11;99393.47;;;12.43
67829;BMP280;54626;45.436;10.942;2023-03-14T08:09:38;99376.84;;;12.43
67829;BMP280;54626;45.436;10.942;2023-03-14T08:12:08;99388.94;;;12.38
67829;BMP280;54626;45.436;10.942;2023-03-14T08:14:34;99398.72;;;12.39
67829;BMP280;54626;45.436;10.942;2023-03-14T08:17:01;99386.31;;;12.40
67829;BMP280;54626;45.436;10.942;2023-03-14T08:19:31;99386.03;;;12.46
67829;BMP280;54626;45.436;10.942;2023-03-14T08:21:57;99401.91;;;12.62
67829;BMP280;54626;45.436;10.942;2023-03-14T08:24:24;99404.97;;;12.66
67829;BMP280;54626;45.436;10.942;2023-03-14T08:26:51;99408.88;;;12.63
67829;BMP280;54626;45.436;10.942;2023-03-14T08:29:18;99401.63;;;12.68
67829;BMP280;54626;45.436;10.942;2023-03-14T08:31:44;99396.66;;;12.66
67829;BMP280;54626;45.436;10.942;2023-03-14T08:34:13;99404.22;;;12.66
67829;BMP280;54626;45.436;10.942;2023-03-14T08:36:41;99396.19;;;12.70
67829;BMP280;54626;45.436;10.942;2023-03-14T08:39:08;99389.19;;;12.59
67829;BMP280;54626;45.436;10.942;2023-03-14T08:41:35;99386.81;;;12.56
67829;BMP280;54626;45.436;10.942;2023-03-14T08:44:07;99384.50;;;12.62
67829;BMP280;54626;45.436;10.942;2023-03-14T08:46:38;99395.03;;;12.63
67829;BMP280;54626;45.436;10.942;2023-03-14T08:49:06;99379.09;;;12.64
67829;BMP280;54626;45.436;10.942;2023-03-14T08:51:35;99369.19;;;12.61
67829;BMP280;54626;45.436;10.942;2023-03-14T08:54:10;99371.50;;;12.55
67829;BMP280;54626;45.436;10.942;2023-03-14T08:56:37;99390.81;;;12.62
67829;BMP280;54626;45.436;10.942;2023-03-14T08:59:07;99401.00;;;12.60
67829;BMP280;54626;45.436;10.942;2023-03-14T09:01:34;99392.22;;;12.54
67829;BMP280;54626;45.436;10.942;2023-03-14T09:04:01;99388.56;;;12.51
67829;BMP280;54626;45.436;10.942;2023-03-14T09:06:28;99384.91;;;12.49
67829;BMP280;54626;45.436;10.942;2023-03-14T09:08:54;99383.88;;;12.54
67829;BMP280;54626;45.436;10.942;2023-03-14T09:11:21;99392.66;;;12.60
67829;BMP280;54626;45.436;10.942;2023-03-14T09:13:50;99397.75;;;12.54
67829;BMP280;54626;45.436;10.942;2023-03-14T09:16:17;99401.41;;;12.56
67829;BMP280;54626;45.436;10.942;2023-03-14T09:18:43;99409.31;;;12.60
67829;BMP280;54626;45.436;10.942;2023-03-14T09:21:10;99403.03;;;12.59
67829;BMP280;54626;45.436;10.942;2023-03-14T09:23:37;99407.84;;;12.59
67829;BMP280;54626;45.436;10.942;2023-03-14T09:26:12;99418.91;;;12.49
67829;BMP280;54626;45.436;10.942;2023-03-14T09:28:39;99423.13;;;12.50
67829;BMP280;54626;45.436;10.942;2023-03-14T09:31:10;99416.53;;;12.46
67829;BMP280;54626;45.436;10.942;2023-03-14T09:33:37;99418.59;;;12.45
67829;BMP280;54626;45.436;10.942;2023-03-14T09:36:06;99417.13;;;12.44
67829;BMP280;54626;45.436;10.942;2023-03-14T09:38:34;99410.09;;;12.43
67829;BMP280;54626;45.436;10.942;2023-03-14T09:41:02;99414.34;;;12.44
67829;BMP280;54626;45.436;10.942;2023-03-14T09:43:33;99413.22;;;12.47
67829;BMP280;54626;45.436;10.942;2023-03-14T09:46:02;99418.91;;;12.49
67829;BMP280;54626;45.436;10.942;2023-03-14T09:48:31;99421.41;;;12.55
67829;BMP280;54626;45.436;10.942;2023-03-14T09:51:05;99419.06;;;12.51
67829;BMP280;54626;45.436;10.942;2023-03-14T09:53:44;99429.00;;;12.54
67829;BMP280;54626;45.436;10.942;2023-03-14T09:56:24;99415.69;;;12.53
67829;BMP280;54626;45.436;10.942;2023-03-14T09:58:55;99417.91;;;12.54
67829;BMP280;54626;45.436;10.942;2023-03-14T10:01:26;99415.69;;;12.53
67829;BMP280;54626;45.436;10.942;2023-03-14T10:04:12;99416.28;;;12.51
67829;BMP280;54626;45.436;10.942;2023-03-14T10:06:40;99421.53;;;12.57
67829;BMP280;54626;45.436;10.942;2023-03-14T10:09:17;99421.31;;;12.62
67829;BMP280;54626;45.436;10.942;2023-03-14T10:11:45;99421.16;;;12.60
67829;BMP280;54626;45.436;10.942;2023-03-14T10:14:29;99432.34;;;12.53
67829;BMP280;54626;45.436;10.942;2023-03-14T10:17:05;99411.28;;;12.50
67829;BMP280;54626;45.436;10.942;2023-03-14T10:19:33;99408.81;;;12.44
67829;BMP280;54626;45.436;10.942;2023-03-14T10:22:04;99399.44;;;12.40
67829;BMP280;54626;45.436;10.942;2023-03-14T10:24:34;99409.59;;;12.28
67829;BMP280;54626;45.436;10.942;2023-03-14T10:27:05;99401.59;;;12.32
67829;BMP280;54626;45.436;10.942;2023-03-14T10:29:33;99393.38;;;12.24
67829;BMP280;54626;45.436;10.942;2023-03-14T10:32:03;99394.84;;;12.25
67829;BMP280;54626;45.436;10.942;2023-03-14T10:34:35;99403.88;;;12.26
67829;BMP280;54626;45.436;10.942;2023-03-14T10:37:17;99405.78;;;12.23
67829;BMP280;54626;45.436;10.942;2023-03-14T10:39:50;99397.50;;;12.33
67829;BMP280;54626;45.436;10.942;2023-03-14T10:42:26;99367.19;;;12.35
67829;BMP280;54626;45.436;10.942;2023-03-14T10:45:00;99351.47;;;12.47
67829;BMP280;54626;45.436;10.942;2023-03-14T10:47:28;99355.75;;;12.57
67829;BMP280;54626;45.436;10.942;2023-03-14T10:49:56;99360.00;;;12.68
67829;BMP280;54626;45.436;10.942;2023-03-14T10:52:26;99357.41;;;12.79
67829;BMP280;54626;45.436;10.942;2023-03-14T10:55:12;99364.44;;;12.80
67829;BMP280;54626;45.436;10.942;2023-03-14T10:57:39;99366.59;;;12.72
67829;BMP280;54626;45.436;10.942;2023-03-14T11:00:15;99366.75;;;12.74
67829;BMP280;54626;45.436;10.942;2023-03-14T11:06:11;99350.25;;;12.76
67829;BMP280;54626;45.436;10.942;2023-03-14T11:08:24;99349.38;;;12.83
67829;BMP280;54626;45.436;10.942;2023-03-14T11:18:48;99361.91;;;12.65
67829;BMP280;54626;45.436;10.942;2023-03-14T11:21:24;99345.44;;;12.77
67829;BMP280;54626;45.436;10.942;2023-03-14T11:26:42;99342.56;;;13.03
67829;BMP280;54626;45.436;10.942;2023-03-14T11:29:55;99339.50;;;12.99
67829;BMP280;54626;45.436;10.942;2023-03-14T11:32:23;99326.06;;;13.05
67829;BMP280;54626;45.436;10.942;2023-03-14T11:34:53;99308.25;;;12.98
67829;BMP280;54626;45.436;10.942;2023-03-14T11:37:31;99323.59;;;12.99
67829;BMP280;54626;45.436;10.942;2023-03-14T11:40:30;99324.31;;;13.00
67829;BMP280;54626;45.436;10.942;2023-03-14T11:45:38;99344.28;;;12.80
67829;BMP280;54626;45.436;10.942;2023-03-14T11:50:52;99328.38;;;12.80
67829;BMP280;54626;45.436;10.942;2023-03-14T11:53:34;99328.97;;;12.88
67829;BMP280;54626;45.436;10.942;2023-03-14T11:56:01;99326.66;;;12.94
67829;BMP280;54626;45.436;10.942;2023-03-14T11:58:33;99313.66;;;13.06
67829;BMP280;54626;45.436;10.942;2023-03-14T12:01:07;99309.72;;;13.09
67829;BMP280;54626;45.436;10.942;2023-03-14T12:03:43;99301.09;;;12.95
67829;BMP280;54626;45.436;10.942;2023-03-14T12:06:19;99296.69;;;12.74
67829;BMP280;54626;45.436;10.942;2023-03-14T12:08:52;99295.09;;;12.80
67829;BMP280;54626;45.436;10.942;2023-03-14T12:13:53;99299.78;;;12.96
67829;BMP280;54626;45.436;10.942;2023-03-14T12:16:30;99292.50;;;13.01
67829;BMP280;54626;45.436;10.942;2023-03-14T12:24:37;99276.13;;;13.05
67829;BMP280;54626;45.436;10.942;2023-03-14T12:27:06;99273.63;;;13.09
67829;BMP280;54626;45.436;10.942;2023-03-14T12:29:58;99271.75;;;13.11
67829;BMP280;54626;45.436;10.942;2023-03-14T12:32:29;99265.47;;;13.20
67829;BMP280;54626;45.436;10.942;2023-03-14T12:35:23;99259.00;;;13.37
67829;BMP280;54626;45.436;10.942;2023-03-14T12:37:54;99247.84;;;13.65
67829;BMP280;54626;45.436;10.942;2023-03-14T12:40:30;99259.25;;;13.69
67829;BMP280;54626;45.436;10.942;2023-03-14T12:43:02;99258.75;;;13.82
67829;BMP280;54626;45.436;10.942;2023-03-14T12:45:31;99251.44;;;13.86
67829;BMP280;54626;45.436;10.942;2023-03-14T12:48:22;99235.91;;;13.83
67829;BMP280;54626;45.436;10.942;2023-03-14T12:51:01;99237.19;;;13.62
67829;BMP280;54626;45.436;10.942;2023-03-14T12:54:05;99234.72;;;13.56
67829;BMP280;54626;45.436;10.942;2023-03-14T13:01:32;99235.25;;;14.55
67829;BMP280;54626;45.436;10.942;2023-03-14T13:04:08;99226.81;;;14.64
67829;BMP280;54626;45.436;10.942;2023-03-14T13:06:54;99225.28;;;14.52
67829;BMP280;54626;45.436;10.942;2023-03-14T13:12:00;99222.84;;;13.95
67829;BMP280;54626;45.436;10.942;2023-03-14T13:14:31;99230.97;;;14.12
67829;BMP280;54626;45.436;10.942;2023-03-14T13:17:00;99237.38;;;14.45
67829;BMP280;54626;45.436;10.942;2023-03-14T13:19:52;99232.19;;;14.72
67829;BMP280;54626;45.436;10.942;2023-03-14T13:22:28;99226.63;;;14.72
67829;BMP280;54626;45.436;10.942;2023-03-14T13:25:09;99232.00;;;14.58
67829;BMP280;54626;45.436;10.942;2023-03-14T13:27:36;99212.19;;;14.64
67829;BMP280;54626;45.436;10.942;2023-03-14T13:30:26;99209.94;;;14.51
67829;BMP280;54626;45.436;10.942;2023-03-14T13:32:54;99199.72;;;14.65
67829;BMP280;54626;45.436;10.942;2023-03-14T13:35:37;99202.13;;;15.23
67829;BMP280;54626;45.436;10.942;2023-03-14T13:38:04;99207.50;;;15.42
67829;BMP280;54626;45.436;10.942;2023-03-14T13:40:37;99203.50;;;15.79
67829;BMP280;54626;45.436;10.942;2023-03-14T13:43:19;99206.38;;;16.27
67829;BMP280;54626;45.436;10.942;2023-03-14T13:45:51;99192.94;;;16.24
67829;BMP280;54626;45.436;10.942;2023-03-14T13:48:19;99189.75;;;16.29
67829;BMP280;54626;45.436;10.942;2023-03-14T13:50:53;99183.50;;;16.53
67829;BMP280;54626;45.436;10.942;2023-03-14T13:53:20;99195.28;;;16.40
67829;BMP280;54626;45.436;10.942;2023-03-14T13:55:49;99200.81;;;16.63
67829;BMP280;54626;45.436;10.942;2023-03-14T13:58:27;99196.63;;;16.39
67829;BMP280;54626;45.436;10.942;2023-03-14T14:01:30;99193.66;;;16.60
67829;BMP280;54626;45.436;10.942;2023-03-14T14:04:23;99193.59;;;16.35
67829;BMP280;54626;45.436;10.942;2023-03-14T14:06:58;99191.72;;;16.04
67829;BMP280;54626;45.436;10.942;2023-03-14T14:09:31;99187.28;;;16.46
67829;BMP280;54626;45.436;10.942;2023-03-14T14:12:29;99174.31;;;16.39
67829;BMP280;54626;45.436;10.942;2023-03-14T14:17:39;99166.00;;;16.78
67829;BMP280;54626;45.436;10.942;2023-03-14T14:20:20;99163.84;;;16.51
67829;BMP280;54626;45.436;10.942;2023-03-14T14:22:49;99164.84;;;15.97
67829;BMP280;54626;45.436;10.942;2023-03-14T14:25:16;99167.00;;;16.10
67829;BMP280;54626;45.436;10.942;2023-03-14T14:27:48;99157.16;;;16.45
67829;BMP280;54626;45.436;10.942;2023-03-14T14:32:47;99139.38;;;16.02
67829;BMP280;54626;45.436;10.942;2023-03-14T14:35:33;99150.44;;;15.77
67829;BMP280;54626;45.436;10.942;2023-03-14T14:38:08;99150.94;;;15.74
67829;BMP280;54626;45.436;10.942;2023-03-14T14:40:44;99156.13;;;15.91
67829;BMP280;54626;45.436;10.942;2023-03-14T14:43:12;99154.94;;;15.48
67829;BMP280;54626;45.436;10.942;2023-03-14T14:45:42;99155.88;;;15.41
67829;BMP280;54626;45.436;10.942;2023-03-14T14:48:10;99161.00;;;15.33
67829;BMP280;54626;45.436;10.942;2023-03-14T14:53:37;99151.28;;;15.80
67829;BMP280;54626;45.436;10.942;2023-03-14T14:56:16;99152.88;;;16.19
67829;BMP280;54626;45.436;10.942;2023-03-14T14:58:46;99147.19;;;16.17
67829;BMP280;54626;45.436;10.942;2023-03-14T15:01:24;99159.78;;;16.30
67829;BMP280;54626;45.436;10.942;2023-03-14T15:03:52;99146.84;;;16.23
67829;BMP280;54626;45.436;10.942;2023-03-14T15:06:20;99148.97;;;16.35